Latest Weather Observations for Ballarat

IDV60801

Issued at 10:02 pm EST Saturday 30 May 2015 (issued every 30 minutes, with the page automatically refreshed every 10 minutes)

About weather observations | Map of weather stations | Latest weather observations for VIC | Other Formats
Station Details ID: 089002 Name: BALLARAT AERODROME Lat: -37.51 Lon: 143.79 Height: 435.2 m
Data from the previous 72 hours. | See also: Recent months at Ballarat
Date/Time
EST
Temp
°C
App
Temp
°C
Dew
Point
Rel
Hum
%
Delta-T
°C
Wind Press
QNH
hPa
Press
MSL
hPa
Rain
since 9 am
mm
Dir
 
Spd
km/h
Gust
km/h
Spd
kts
Gust
kts
30/10:00pm 8.8 4.7 8.7 99 0.0 N 20 26 11 14 1016.5 1016.7 0.4
30/09:30pm 8.7 3.8 8.6 99 0.0 N 24 30 13 16 1016.6 1016.8 0.4
30/09:14pm 8.8 4.3 8.7 99 0.0 N 22 28 12 15 1016.7 1016.9 0.4
30/09:00pm 9.0 4.6 8.9 99 0.1 N 22 28 12 15 1016.7 1016.9 0.4
30/08:30pm 8.8 4.9 8.7 99 0.0 N 19 22 10 12 1016.8 1017.0 0.4
30/08:00pm 8.8 4.9 8.7 99 0.0 N 19 24 10 13 1016.9 1017.1 0.4
30/07:30pm 8.5 4.9 8.4 99 0.0 N 17 22 9 12 1016.9 1017.1 0.4
30/07:00pm 8.7 4.6 8.6 99 0.0 NNW 20 24 11 13 1016.8 1017.0 0.4
30/06:30pm 9.3 4.5 9.0 98 0.2 NNW 24 32 13 17 1016.8 1017.0 0.4
30/06:11pm 9.2 5.7 8.9 98 0.2 NW 17 22 9 12 1016.8 1017.0 0.4
30/06:00pm 9.3 4.1 9.0 98 0.2 NNW 26 35 14 19 1016.8 1017.0 0.4
30/05:54pm 9.6 4.9 9.3 98 0.2 NW 24 35 13 19 1016.8 1017.0 0.4
30/05:30pm 10.3 5.8 8.4 88 0.9 NNW 22 33 12 18 1016.5 1016.7 0.2
30/05:00pm 10.3 5.8 8.7 90 0.8 NNW 22 26 12 14 1016.5 1016.7 0.2
30/04:30pm 10.4 5.2 9.0 91 0.7 NNW 26 30 14 16 1016.5 1016.7 0.2
30/04:00pm 10.6 5.1 9.0 90 0.8 NNW 28 35 15 19 1016.5 1016.7 0.2
30/03:46pm 10.0 4.5 9.1 94 0.5 NW 28 35 15 19 1016.5 1016.7 0.2
30/03:30pm 10.0 5.3 9.2 95 0.4 NW 24 30 13 16 1016.6 1016.8 0.0
30/03:00pm 11.3 4.0 7.0 75 2.1 NW 35 44 19 24 1016.5 1016.7 0.0
30/02:30pm 11.2 3.8 6.9 75 2.1 NW 35 43 19 23 1016.7 1016.9 0.0
30/02:00pm 12.2 4.8 6.7 69 2.7 NW 35 46 19 25 1016.8 1017.0 0.0
30/01:30pm 11.2 4.1 6.3 72 2.4 NW 33 43 18 23 1017.3 1017.6 0.0
30/01:00pm 10.9 3.8 6.6 75 2.1 NW 33 43 18 23 1017.7 1018.0 0.0
30/12:30pm 11.8 3.3 6.9 72 2.4 NW 41 52 22 28 1018.2 1018.4 0.0
30/12:00pm 10.6 2.9 7.1 79 1.7 NW 37 46 20 25 1018.6 1018.8 0.0
30/11:30am 10.5 1.9 6.5 76 1.9 NNW 41 50 22 27 1018.9 1019.1 0.0
30/11:00am 9.6 1.8 6.7 82 1.4 NW 37 52 20 28 1019.6 1019.9 0.0
30/10:30am 9.2 2.4 7.6 90 0.8 NW 33 46 18 25 1020.0 1020.3 0.0
30/10:00am 8.8 1.7 8.0 95 0.4 NW 35 43 19 23 1020.2 1020.5 0.0
30/09:50am 8.7 2.6 8.4 98 0.1 NW 30 39 16 21 1020.3 1020.6 0.0
30/09:30am 7.9 3.2 7.8 99 0.0 NNW 22 33 12 18 1020.2 1020.5 0.0
30/09:00am 7.2 2.3 7.1 99 0.0 N 22 28 12 15 1020.1 1020.4 0.0
30/08:30am 6.5 1.1 6.4 99 0.0 N 24 28 13 15 1020.2 1020.5 0.0
30/08:26am 6.4 1.4 6.3 99 0.0 N 22 28 12 15 1020.3 1020.6 0.0
30/08:00am 5.9 0.8 5.8 99 0.0 N 22 26 12 14 1020.2 1020.5 0.0
30/07:30am 5.9 0.8 5.8 99 0.0 N 22 28 12 15 1020.1 1020.4 0.0
30/07:00am 6.2 0.7 6.1 99 0.0 N 24 28 13 15 1020.0 1020.3 0.0
30/06:30am 6.1 1.0 6.0 99 0.0 N 22 26 12 14 1020.0 1020.3 0.0
30/06:00am 5.8 1.2 5.7 99 0.0 N 19 22 10 12 1020.0 1020.3 0.0
30/05:30am 5.7 1.1 5.4 98 0.1 N 19 24 10 13 1020.1 1020.4 0.0
30/05:00am 6.4 1.7 6.1 98 0.1 N 20 26 11 14 1020.0 1020.3 0.0
30/04:30am 5.8 1.2 5.7 99 0.0 NNW 19 24 10 13 1020.0 1020.3 0.0
30/04:00am 6.2 1.5 6.1 99 0.0 N 20 26 11 14 1019.9 1020.2 0.0
30/03:30am 6.3 1.2 6.2 99 0.0 N 22 26 12 14 1020.1 1020.4 0.0
30/03:00am 5.8 1.6 5.7 99 0.0 N 17 20 9 11 1020.4 1020.7 0.0
30/02:30am 6.0 1.5 5.9 99 0.0 N 19 22 10 12 1020.7 1020.9 0.0
30/02:00am 6.1 1.4 6.0 99 0.0 N 20 24 11 13 1020.7 1020.9 0.0
30/01:30am 6.2 1.7 6.1 99 0.0 N 19 22 10 12 1020.9 1021.1 0.0
30/01:00am 7.2 3.3 7.1 99 0.0 N 17 20 9 11 1021.2 1021.4 0.0
30/12:30am 7.5 3.3 7.4 99 0.0 N 19 22 10 12 1021.6 1021.9 0.0
30/12:00am 8.1 3.8 7.8 98 0.1 NNW 20 28 11 15 1021.9 1022.2 0.0
 
Date/Time
EST
Temp
°C
App
Temp
°C
Dew
Point
Rel
Hum
%
Delta-T
°C
Wind Press
QNH
hPa
Press
MSL
hPa
Rain
since 9 am
mm
Dir
 
Spd
km/h
Gust
km/h
Spd
kts
Gust
kts
29/11:30pm 7.5 3.2 7.2 98 0.1 N 19 22 10 12 1022.0 1022.3 0.0
29/11:00pm 7.8 4.0 7.5 98 0.1 N 17 20 9 11 1022.1 1022.4 0.0
29/10:30pm 7.7 4.2 7.4 98 0.1 NNW 15 19 8 10 1022.1 1022.4 0.0
29/10:00pm 7.5 3.2 7.2 98 0.1 N 19 22 10 12 1022.2 1022.5 0.0
29/09:30pm 8.1 3.5 6.4 89 0.8 NNW 20 22 11 12 1022.1 1022.4 0.0
29/09:00pm 8.5 4.4 6.3 86 1.0 N 17 20 9 11 1022.1 1022.4 0.0
29/08:30pm 8.2 4.8 6.0 86 1.0 N 13 15 7 8 1022.1 1022.4 0.0
29/08:00pm 8.5 4.7 5.8 83 1.3 N 15 17 8 9 1021.9 1022.2 0.0
29/07:30pm 9.0 4.8 5.7 80 1.5 N 17 20 9 11 1021.8 1022.1 0.0
29/07:00pm 9.1 4.9 5.8 80 1.5 NNW 17 22 9 12 1021.8 1022.1 0.0
29/06:30pm 8.7 5.0 6.2 84 1.2 N 15 17 8 9 1021.6 1021.9 0.0
29/06:00pm 8.9 4.8 6.2 83 1.3 NNW 17 19 9 10 1021.5 1021.8 0.0
29/05:30pm 9.0 5.2 5.9 81 1.5 NW 15 19 8 10 1021.5 1021.8 0.0
29/05:00pm 9.6 6.2 5.8 77 1.8 NW 13 19 7 10 1021.3 1021.6 0.0
29/04:30pm 10.6 6.0 5.8 72 2.3 NW 19 24 10 13 1021.2 1021.4 0.0
29/04:00pm 10.6 6.0 5.4 70 2.4 NW 19 22 10 12 1021.1 1021.3 0.0
29/03:30pm 10.4 6.6 5.6 72 2.3 NW 15 19 8 10 1021.1 1021.3 0.0
29/03:00pm 11.0 6.6 4.7 65 2.9 NW 17 20 9 11 1020.9 1021.1 0.0
29/02:30pm 11.4 5.6 4.2 61 3.3 NW 24 32 13 17 1020.9 1021.1 0.0
29/02:00pm 11.3 6.2 4.1 61 3.3 WNW 20 28 11 15 1020.9 1021.1 0.0
29/01:30pm 10.4 5.3 4.3 66 2.8 WNW 20 26 11 14 1021.2 1021.4 0.0
29/01:00pm 10.8 6.0 4.7 66 2.8 WNW 19 32 10 17 1021.2 1021.4 0.0
29/12:30pm 9.9 4.6 4.9 71 2.3 WNW 22 28 12 15 1021.4 1021.7 0.0
29/12:00pm 10.2 5.3 5.2 71 2.3 WNW 20 28 11 15 1021.7 1022.0 0.0
29/11:30am 10.5 5.5 6.3 75 2.0 WNW 22 28 12 15 1022.0 1022.3 0.0
29/11:00am 10.3 5.6 5.9 74 2.1 WNW 20 28 11 15 1022.1 1022.4 0.0
29/10:30am 9.0 4.3 5.9 81 1.5 WNW 20 28 11 15 1022.2 1022.5 0.0
29/10:00am 9.4 5.6 7.5 88 0.9 NW 17 26 9 14 1022.1 1022.4 0.0
29/09:30am 8.3 4.7 6.9 91 0.7 NNW 15 19 8 10 1021.9 1022.2 0.0
29/09:00am 6.8 4.7 6.5 98 0.1 N 7 11 4 6 1021.8 1022.1 1.0
29/08:30am 3.8 1.1 3.7 99 0.0 NNE 7 9 4 5 1021.6 1021.9 1.0
29/08:00am 1.7 -1.4 1.6 99 0.0 NNE 7 9 4 5 1021.2 1021.4 1.0
29/07:30am 1.8 -1.2 1.7 99 0.0 N 7 11 4 6 1020.8 1021.0 1.0
29/07:00am 2.0 -1.8 1.9 99 0.0 NW 11 13 6 7 1020.2 1020.5 1.0
29/06:30am 2.3 -1.8 2.2 99 0.0 NNW 13 13 7 7 1020.0 1020.3 1.0
29/06:00am 2.3 -1.1 2.0 98 0.1 NNW 9 9 5 5 1019.7 1020.0 1.0
29/05:30am 2.1 -2.5 1.8 98 0.1 NNW 15 17 8 9 1019.5 1019.8 1.0
29/05:00am 3.0 -0.6 2.7 98 0.1 N 11 13 6 7 1019.3 1019.6 1.0
29/04:30am 3.9 0.8 3.6 98 0.1 WNW 9 11 5 6 1018.9 1019.1 1.0
29/04:00am 3.9 0.0 3.6 98 0.1 NW 13 15 7 8 1018.6 1018.8 1.0
29/03:30am 4.2 1.2 3.9 98 0.1 NW 9 11 5 6 1018.7 1018.9 1.0
29/03:00am 5.0 2.7 4.7 98 0.1 NW 6 7 3 4 1018.8 1019.0 1.0
29/02:30am 6.3 3.7 6.0 98 0.1 N 9 13 5 7 1018.6 1018.8 1.0
29/02:00am 6.2 3.9 5.9 98 0.1 NW 7 13 4 7 1018.7 1018.9 1.0
29/01:30am 6.9 4.8 6.6 98 0.1 WNW 7 9 4 5 1018.5 1018.7 1.0
29/01:00am 7.5 4.8 7.2 98 0.1 W 11 15 6 8 1018.2 1018.4 1.0
29/12:30am 7.4 5.0 7.1 98 0.1 WNW 9 13 5 7 1018.2 1018.4 1.0
29/12:00am 8.5 6.4 8.2 98 0.1 WNW 9 15 5 8 1018.2 1018.4 1.0
 
Date/Time
EST
Temp
°C
App
Temp
°C
Dew
Point
Rel
Hum
%
Delta-T
°C
Wind Press
QNH
hPa
Press
MSL
hPa
Rain
since 9 am
mm
Dir
 
Spd
km/h
Gust
km/h
Spd
kts
Gust
kts
28/11:30pm 8.6 5.7 8.3 98 0.1 W 13 19 7 10 1017.9 1018.2 1.0
28/11:00pm 8.8 5.7 8.7 99 0.0 W 15 24 8 13 1017.9 1018.2 1.0
28/10:59pm 8.8 5.7 8.7 99 0.0 W 15 24 8 13 1017.9 1018.2 1.0
28/10:30pm 9.0 5.5 8.9 99 0.1 WSW 17 22 9 12 1018.0 1018.3 1.0
28/10:00pm 9.4 7.2 9.3 99 0.1 WNW 11 13 6 7 1017.8 1018.1 0.8
28/09:30pm 9.2 7.3 9.1 99 0.1 W 9 13 5 7 1017.6 1017.9 0.8
28/09:00pm 9.5 6.5 9.4 99 0.1 WSW 15 20 8 11 1017.3 1017.6 0.8
28/08:36pm 9.6 5.9 9.3 98 0.2 W 19 28 10 15 1017.2 1017.4 0.8
28/08:30pm 9.7 5.4 9.4 98 0.2 W 22 30 12 16 1017.2 1017.4 0.8
28/08:26pm 9.7 5.8 9.6 99 0.1 WSW 20 30 11 16 1017.1 1017.3 0.8
28/08:00pm 10.3 7.1 10.1 99 0.1 WNW 17 20 9 11 1016.8 1017.0 0.8
28/07:30pm 10.5 6.0 10.2 98 0.2 W 24 32 13 17 1016.5 1016.7 0.2
28/07:00pm 12.1 6.7 7.8 75 2.1 WNW 26 46 14 25 1016.1 1016.3 0.0
28/06:59pm 12.5 7.3 7.4 71 2.5 WNW 24 46 13 25 1016.1 1016.3 0.0
28/06:30pm 13.0 7.1 5.7 61 3.5 NNW 26 32 14 17 1015.2 1015.4 0.0
28/06:00pm 13.3 7.4 5.7 60 3.7 NNW 26 30 14 16 1014.8 1015.0 0.0
28/05:30pm 14.0 6.6 4.9 54 4.3 NW 33 46 18 25 1014.6 1014.8 0.0
28/05:00pm 14.6 8.5 4.9 52 4.6 NW 26 33 14 18 1014.4 1014.6 0.0
28/04:30pm 15.3 6.6 4.1 47 5.3 NW 39 48 21 26 1014.1 1014.3 0.0
28/04:16pm 16.1 7.8 4.2 45 5.7 NW 37 59 20 32 1013.8 1014.0 0.0
28/04:00pm 16.2 7.8 5.8 50 5.1 NNW 39 50 21 27 1014.0 1014.2 0.0
28/03:42pm 17.1 9.0 5.1 45 5.9 NW 37 59 20 32 1014.0 1014.2 0.0
28/03:30pm 16.1 7.2 5.1 48 5.3 NW 41 56 22 30 1014.0 1014.2 0.0
28/03:20pm 16.7 9.7 5.9 49 5.4 NNW 32 52 17 28 1013.9 1014.1 0.0
28/03:00pm 16.4 8.0 7.3 55 4.6 NNW 41 54 22 29 1014.1 1014.3 0.0
28/02:30pm 15.8 7.3 7.0 56 4.4 NNW 41 52 22 28 1014.2 1014.4 0.0
28/02:00pm 16.3 8.1 6.7 53 4.8 NNW 39 54 21 29 1014.4 1014.6 0.0
28/01:30pm 16.0 7.2 7.2 56 4.5 NNW 43 54 23 29 1014.6 1014.8 0.0
28/01:00pm 15.0 7.8 7.8 62 3.7 N 35 44 19 24 1015.1 1015.3 0.0
28/12:30pm 14.7 7.6 8.2 65 3.3 N 35 44 19 24 1015.5 1015.8 0.0
28/12:00pm 14.1 7.8 8.9 71 2.7 N 32 39 17 21 1016.1 1016.3 0.0
28/11:30am 12.5 6.5 8.8 78 1.9 N 30 39 16 21 1016.6 1016.8 0.0
28/11:00am 11.2 5.1 8.4 83 1.4 N 30 37 16 20 1017.0 1017.2 0.0
28/10:30am 10.5 4.5 8.8 89 0.9 N 30 35 16 19 1017.4 1017.7 0.0
28/10:00am 9.8 4.3 9.2 96 0.3 N 28 35 15 19 1017.3 1017.6 0.0
28/09:30am 9.3 3.4 9.0 98 0.2 N 30 37 16 20 1017.5 1017.8 0.0
28/09:00am 9.3 3.8 9.0 98 0.2 N 28 35 15 19 1017.4 1017.7 0.0
28/08:30am 8.4 1.9 8.3 99 0.0 N 32 39 17 21 1017.4 1017.7 0.0
28/08:00am 8.3 2.2 8.2 99 0.0 N 30 39 16 21 1017.3 1017.6 0.0
28/07:30am 8.2 3.2 8.1 99 0.0 N 24 30 13 16 1017.4 1017.7 0.0
28/07:00am 8.2 3.2 8.1 99 0.0 N 24 32 13 17 1017.4 1017.7 0.0
28/06:30am 8.2 4.0 8.1 99 0.0 N 20 30 11 16 1017.3 1017.6 0.0
28/06:00am 7.9 3.2 7.8 99 0.0 N 22 28 12 15 1017.0 1017.2 0.0
28/05:30am 7.8 3.7 7.7 99 0.0 N 19 26 10 14 1017.2 1017.4 0.0
28/05:00am 7.8 3.5 7.7 99 0.0 N 20 26 11 14 1017.5 1017.8 0.0
28/04:30am 7.3 3.0 7.2 99 0.0 NNE 19 24 10 13 1017.5 1017.8 0.0
28/04:00am 7.4 3.2 7.3 99 0.0 NNW 19 24 10 13 1017.5 1017.8 0.0
28/03:30am 7.4 3.5 7.3 99 0.0 N 17 20 9 11 1017.3 1017.6 0.0
28/03:00am 7.6 2.8 7.3 98 0.1 N 22 28 12 15 1017.7 1018.0 0.0
28/02:30am 8.9 4.8 8.6 98 0.1 N 20 28 11 15 1017.9 1018.2 0.0
28/02:00am 8.3 4.6 8.0 98 0.1 N 17 19 9 10 1018.2 1018.4 0.0
28/01:30am 8.6 4.6 8.3 98 0.1 N 19 22 10 12 1018.2 1018.4 0.0
28/01:00am 9.0 4.9 8.7 98 0.1 N 20 28 11 15 1018.4 1018.6 0.0
28/12:30am 9.4 6.6 8.6 95 0.4 N 13 17 7 9 1018.6 1018.8 0.0
28/12:00am 10.2 5.5 9.1 93 0.6 NNE 24 28 13 15 1018.6 1018.8 0.0
 
Date/Time
EST
Temp
°C
App
Temp
°C
Dew
Point
Rel
Hum
%
Delta-T
°C
Wind Press
QNH
hPa
Press
MSL
hPa
Rain
since 9 am
mm
Dir
 
Spd
km/h
Gust
km/h
Spd
kts
Gust
kts
27/11:30pm 10.3 6.4 9.5 95 0.4 NNE 20 26 11 14 1018.9 1019.1 0.0
27/11:00pm 10.8 7.3 10.2 96 0.3 N 19 24 10 13 1019.0 1019.2 0.0
27/10:30pm 10.2 7.0 9.9 98 0.2 N 17 24 9 13 1019.2 1019.4 0.0

Other Formats:

Comma delimited format used in spreadsheet applications
http://www.bom.gov.au/fwo/IDV60801/IDV60801.94852.axf

JavaScript Object Notation format (JSON) in row-major order
http://www.bom.gov.au/fwo/IDV60801/IDV60801.94852.json